Time,TemperatureF,DewpointF,PressureIn,WindDirection,WindDirectionDegrees,WindSpeedMPH,WindSpeedGustMPH,Humidity,HourlyPrecipIn,Conditions,Clouds,dailyrainin,SoftwareType,DateUTC
2013-04-09 00:01:00,66.5,50.8,30.03,SW,216,3.5,5.0,57,0.00,NA,NA,0.00,WeatherLink_script,2013-04-09 04:01:00,
2013-04-09 00:02:00,66.5,50.8,30.03,SW,216,3.5,5.0,57,0.00,NA,NA,0.00,WeatherLink_script,2013-04-09 04:02:00,
2013-04-09 00:04:00,66.5,50.8,30.03,SW,216,4.3,7.0,57,0.00,NA,NA,0.00,WeatherLink_script,2013-04-09 04:04:00,
2013-04-09 00:08:00,66.5,51.2,30.03,SW,229,4.5,6.0,58,0.00,NA,NA,0.00,WeatherLink_script,2013-04-09 04:08:00,
2013-04-09 00:13:00,66.7,51.5,30.03,WSW,246,4.4,6.0,58,0.00,NA,NA,0.00,WeatherLink_script,2013-04-09 04:13:00,
2013-04-09 00:18:00,66.8,51.1,30.03,SW,228,3.7,5.0,57,0.00,NA,NA,0.00,WeatherLink_script,2013-04-09 04:18:00,
2013-04-09 00:23:00,66.7,51.0,30.03,SW,219,5.0,9.0,57,0.00,NA,NA,0.00,WeatherLink_script,2013-04-09 04:23:00,
2013-04-09 00:28:00,66.4,51.2,30.03,SW,217,2.9,5.0,58,0.00,NA,NA,0.00,WeatherLink_script,2013-04-09 04:28:00,
2013-04-09 00:33:00,66.2,51.4,30.03,SW,218,3.5,5.0,59,0.00,NA,NA,0.00,WeatherLink_script,2013-04-09 04:33:00,
2013-04-09 00:38:00,65.9,51.2,30.04,SW,222,3.4,5.0,59,0.00,NA,NA,0.00,WeatherLink_script,2013-04-09 04:38:00,
2013-04-09 00:43:00,65.9,51.2,30.03,SSW,208,3.7,5.0,59,0.00,NA,NA,0.00,WeatherLink_script,2013-04-09 04:43:00,
2013-04-09 00:48:00,65.7,51.4,30.04,SW,224,4.4,6.0,60,0.00,NA,NA,0.00,WeatherLink_script,2013-04-09 04:48:00,
2013-04-09 00:53:00,65.7,51.0,30.04,WSW,237,3.9,6.0,59,0.00,NA,NA,0.00,WeatherLink_script,2013-04-09 04:53:00,
2013-04-09 00:58:00,65.9,51.2,30.04,SW,234,4.1,5.0,59,0.00,NA,NA,0.00,WeatherLink_script,2013-04-09 04:58:00,
2013-04-09 01:03:00,66.0,51.3,30.04,WSW,240,5.8,7.0,59,0.00,NA,NA,0.00,WeatherLink_script,2013-04-09 05:03:00,
2013-04-09 01:08:00,66.2,51.4,30.04,WSW,239,6.2,8.0,59,0.00,NA,NA,0.00,WeatherLink_script,2013-04-09 05:08:00,
2013-04-09 01:13:00,66.4,51.6,30.04,SW,233,6.2,7.0,59,0.00,NA,NA,0.00,WeatherLink_script,2013-04-09 05:13:00,
2013-04-09 01:18:00,66.5,51.7,30.04,SW,236,5.5,8.0,59,0.00,NA,NA,0.00,WeatherLink_script,2013-04-09 05:18:00,
2013-04-09 01:23:00,66.7,51.5,30.04,WSW,237,5.3,6.0,58,0.00,NA,NA,0.00,WeatherLink_script,2013-04-09 05:23:00,
2013-04-09 01:28:00,66.8,51.5,30.04,SW,236,4.9,7.0,58,0.00,NA,NA,0.00,WeatherLink_script,2013-04-09 05:28:00,
2013-04-09 01:33:00,67.0,51.7,30.03,WSW,241,5.0,6.0,58,0.00,NA,NA,0.00,WeatherLink_script,2013-04-09 05:33:00,
2013-04-09 01:38:00,67.0,51.7,30.03,WSW,242,4.0,5.0,58,0.00,NA,NA,0.00,WeatherLink_script,2013-04-09 05:38:00,
2013-04-09 01:43:00,67.1,51.8,30.03,WSW,246,5.5,7.0,58,0.00,NA,NA,0.00,WeatherLink_script,2013-04-09 05:43:00,
2013-04-09 01:48:00,67.1,51.8,30.03,SW,236,4.7,7.0,58,0.00,NA,NA,0.00,WeatherLink_script,2013-04-09 05:48:00,
2013-04-09 01:53:00,67.1,51.8,30.03,SW,229,4.9,6.0,58,0.00,NA,NA,0.00,WeatherLink_script,2013-04-09 05:53:00,
2013-04-09 01:58:00,67.0,51.7,30.03,SW,232,3.8,5.0,58,0.00,NA,NA,0.00,WeatherLink_script,2013-04-09 05:58:00,
2013-04-09 02:03:00,67.0,51.7,30.03,WSW,245,4.6,6.0,58,0.00,NA,NA,0.00,WeatherLink_script,2013-04-09 06:03:00,
2013-04-09 02:08:00,67.0,51.7,30.03,SW,234,3.6,5.0,58,0.00,NA,NA,0.00,WeatherLink_script,2013-04-09 06:08:00,
2013-04-09 02:13:00,66.8,51.5,30.03,SW,235,2.8,5.0,58,0.00,NA,NA,0.00,WeatherLink_script,2013-04-09 06:13:00,
2013-04-09 02:18:00,66.7,51.5,30.03,SW,235,3.3,5.0,58,0.00,NA,NA,0.00,WeatherLink_script,2013-04-09 06:18:00,
2013-04-09 02:23:00,66.4,51.1,30.03,SW,235,2.5,4.0,58,0.00,NA,NA,0.00,WeatherLink_script,2013-04-09 06:23:00,
2013-04-09 02:28:00,66.2,51.4,30.03,SW,235,3.6,5.0,59,0.00,NA,NA,0.00,WeatherLink_script,2013-04-09 06:28:00,
2013-04-09 02:33:00,66.0,51.3,30.03,SW,235,3.8,5.0,59,0.00,NA,NA,0.00,WeatherLink_script,2013-04-09 06:33:00,
2013-04-09 02:38:00,66.0,51.7,30.03,SW,230,3.5,5.0,60,0.00,NA,NA,0.00,WeatherLink_script,2013-04-09 06:38:00,
2013-04-09 02:43:00,65.9,51.2,30.03,SW,224,3.2,4.0,59,0.00,NA,NA,0.00,WeatherLink_script,2013-04-09 06:43:00,
2013-04-09 02:48:00,65.6,51.3,30.03,SW,224,2.8,3.0,60,0.00,NA,NA,0.00,WeatherLink_script,2013-04-09 06:48:00,
2013-04-09 02:53:00,65.2,51.0,30.03,SW,224,3.5,5.0,60,0.00,NA,NA,0.00,WeatherLink_script,2013-04-09 06:53:00,
2013-04-09 02:58:00,64.6,50.8,30.02,SW,224,3.5,5.0,61,0.00,NA,NA,0.00,WeatherLink_script,2013-04-09 06:58:00,
2013-04-09 03:03:00,64.2,50.9,30.02,SW,224,4.1,5.0,62,0.00,NA,NA,0.00,WeatherLink_script,2013-04-09 07:03:00,
2013-04-09 03:08:00,63.8,50.9,30.03,SW,224,4.2,5.0,63,0.00,NA,NA,0.00,WeatherLink_script,2013-04-09 07:08:00,
2013-04-09 03:13:00,63.4,51.0,30.02,SW,219,3.7,5.0,64,0.00,NA,NA,0.00,WeatherLink_script,2013-04-09 07:13:00,
2013-04-09 03:18:00,63.0,51.0,30.02,SW,218,3.9,6.0,65,0.00,NA,NA,0.00,WeatherLink_script,2013-04-09 07:18:00,
2013-04-09 03:23:00,62.7,51.2,30.02,SW,218,3.6,5.0,66,0.00,NA,NA,0.00,WeatherLink_script,2013-04-09 07:23:00,
2013-04-09 03:28:00,62.7,51.2,30.02,SSW,203,4.0,5.0,66,0.00,NA,NA,0.00,WeatherLink_script,2013-04-09 07:28:00,
2013-04-09 03:33:00,62.4,50.9,30.02,SSW,203,3.4,5.0,66,0.00,NA,NA,0.00,WeatherLink_script,2013-04-09 07:33:00,
2013-04-09 03:38:00,62.4,51.3,30.02,SSW,203,3.7,5.0,67,0.00,NA,NA,0.00,WeatherLink_script,2013-04-09 07:38:00,
2013-04-09 03:43:00,62.2,51.1,30.02,SSW,203,3.8,5.0,67,0.00,NA,NA,0.00,WeatherLink_script,2013-04-09 07:43:00,
2013-04-09 03:48:00,62.2,51.1,30.02,SSW,203,2.8,5.0,67,0.00,NA,NA,0.00,WeatherLink_script,2013-04-09 07:48:00,
2013-04-09 03:53:00,62.1,51.0,30.03,SSW,203,2.2,3.0,67,0.00,NA,NA,0.00,WeatherLink_script,2013-04-09 07:53:00,
2013-04-09 03:58:00,62.0,50.9,30.03,SSW,203,2.5,3.0,67,0.00,NA,NA,0.00,WeatherLink_script,2013-04-09 07:58:00,
2013-04-09 04:03:00,62.0,50.9,30.03,SSW,203,2.9,4.0,67,0.00,NA,NA,0.00,WeatherLink_script,2013-04-09 08:03:00,
2013-04-09 04:08:00,62.1,51.0,30.03,SSW,203,2.5,3.0,67,0.00,NA,NA,0.00,WeatherLink_script,2013-04-09 08:08:00,
2013-04-09 04:13:00,62.0,51.0,30.03,SSW,203,3.1,4.0,67,0.00,NA,NA,0.00,WeatherLink_script,2013-04-09 08:13:00,
2013-04-09 04:18:00,61.7,50.6,30.03,SSW,199,4.1,5.0,67,0.00,NA,NA,0.00,WeatherLink_script,2013-04-09 08:18:00,
2013-04-09 04:23:00,61.4,50.7,30.03,SSW,196,3.7,5.0,68,0.00,NA,NA,0.00,WeatherLink_script,2013-04-09 08:23:00,
2013-04-09 04:28:00,61.3,50.7,30.04,SSW,196,3.8,6.0,68,0.00,NA,NA,0.00,WeatherLink_script,2013-04-09 08:28:00,
2013-04-09 04:33:00,61.1,50.9,30.04,SSW,196,3.7,5.0,69,0.00,NA,NA,0.00,WeatherLink_script,2013-04-09 08:33:00,
2013-04-09 04:38:00,61.0,50.8,30.04,SSW,196,4.0,5.0,69,0.00,NA,NA,0.00,WeatherLink_script,2013-04-09 08:38:00,
2013-04-09 04:43:00,60.8,50.6,30.04,SSW,196,5.3,7.0,69,0.00,NA,NA,0.00,WeatherLink_script,2013-04-09 08:43:00,
2013-04-09 04:48:00,60.6,50.8,30.04,South,185,4.7,6.0,70,0.00,NA,NA,0.00,WeatherLink_script,2013-04-09 08:48:00,
2013-04-09 04:53:00,60.5,50.7,30.04,South,179,4.5,5.0,70,0.00,NA,NA,0.00,WeatherLink_script,2013-04-09 08:53:00,
2013-04-09 04:58:00,60.5,50.7,30.05,South,181,4.3,6.0,70,0.00,NA,NA,0.00,WeatherLink_script,2013-04-09 08:58:00,
2013-04-09 05:03:00,60.3,50.5,30.05,SSW,194,4.0,5.0,70,0.00,NA,NA,0.00,WeatherLink_script,2013-04-09 09:03:00,
2013-04-09 05:08:00,60.2,50.7,30.05,South,187,5.2,6.0,71,0.00,NA,NA,0.00,WeatherLink_script,2013-04-09 09:08:00,
2013-04-09 05:13:00,60.2,50.8,30.05,South,185,3.6,5.0,71,0.00,NA,NA,0.00,WeatherLink_script,2013-04-09 09:13:00,
2013-04-09 05:18:00,60.0,50.6,30.05,South,185,4.6,5.0,71,0.00,NA,NA,0.00,WeatherLink_script,2013-04-09 09:18:00,
2013-04-09 05:23:00,59.9,50.5,30.06,South,185,3.8,5.0,71,0.00,NA,NA,0.00,WeatherLink_script,2013-04-09 09:23:00,
2013-04-09 05:28:00,59.7,50.7,30.06,South,185,3.2,5.0,72,0.00,NA,NA,0.00,WeatherLink_script,2013-04-09 09:28:00,
2013-04-09 05:33:00,59.8,50.7,30.06,South,185,3.5,4.0,72,0.00,NA,NA,0.00,WeatherLink_script,2013-04-09 09:33:00,
2013-04-09 05:38:00,60.0,50.6,30.06,South,185,3.9,5.0,71,0.00,NA,NA,0.00,WeatherLink_script,2013-04-09 09:38:00,
2013-04-09 05:43:00,60.0,50.6,30.07,South,184,3.0,4.0,71,0.00,NA,NA,0.00,WeatherLink_script,2013-04-09 09:43:00,
2013-04-09 05:48:00,60.2,50.7,30.07,South,185,3.2,4.0,71,0.00,NA,NA,0.00,WeatherLink_script,2013-04-09 09:48:00,
2013-04-09 05:53:00,60.2,50.8,30.07,South,185,2.3,3.0,71,0.00,NA,NA,0.00,WeatherLink_script,2013-04-09 09:53:00,
2013-04-09 05:58:00,60.2,50.8,30.07,South,185,1.4,2.0,71,0.00,NA,NA,0.00,WeatherLink_script,2013-04-09 09:58:00,
2013-04-09 06:03:00,60.4,50.6,30.07,South,185,2.2,4.0,70,0.00,NA,NA,0.00,WeatherLink_script,2013-04-09 10:03:00,
2013-04-09 06:08:00,60.7,50.4,30.07,South,185,2.2,3.0,69,0.00,NA,NA,0.00,WeatherLink_script,2013-04-09 10:08:00,
2013-04-09 06:13:00,61.0,50.7,30.07,South,186,1.3,2.0,69,0.00,NA,NA,0.00,WeatherLink_script,2013-04-09 10:13:00,
2013-04-09 06:19:00,61.1,50.5,30.07,South,186,1.4,2.0,68,0.00,NA,NA,0.00,WeatherLink_script,2013-04-09 10:19:00,
2013-04-09 06:24:00,61.3,50.7,30.08,South,186,1.6,3.0,68,0.00,NA,NA,0.00,WeatherLink_script,2013-04-09 10:24:00,
2013-04-09 06:30:00,61.4,50.3,30.08,South,186,1.7,3.0,67,0.00,NA,NA,0.00,WeatherLink_script,2013-04-09 10:30:00,
2013-04-09 06:36:00,61.4,50.7,30.08,South,186,2.5,3.0,68,0.00,NA,NA,0.00,WeatherLink_script,2013-04-09 10:36:00,
2013-04-09 06:41:00,61.3,50.7,30.08,South,186,2.8,4.0,68,0.00,NA,NA,0.00,WeatherLink_script,2013-04-09 10:41:00,
2013-04-09 06:46:00,61.5,50.8,30.08,South,186,2.5,3.0,68,0.00,NA,NA,0.00,WeatherLink_script,2013-04-09 10:46:00,
2013-04-09 06:51:00,61.4,50.7,30.09,South,186,2.7,4.0,68,0.00,NA,NA,0.00,WeatherLink_script,2013-04-09 10:51:00,
2013-04-09 06:56:00,61.1,50.5,30.09,South,186,2.4,4.0,68,0.00,NA,NA,0.00,WeatherLink_script,2013-04-09 10:56:00,
2013-04-09 07:01:00,60.8,50.6,30.09,SSW,192,2.8,3.0,69,0.00,NA,NA,0.00,WeatherLink_script,2013-04-09 11:01:00,
2013-04-09 07:06:00,60.8,50.6,30.09,SSW,194,3.1,5.0,69,0.00,NA,NA,0.00,WeatherLink_script,2013-04-09 11:06:00,
2013-04-09 07:11:00,60.8,50.6,30.09,SSW,194,2.6,4.0,69,0.00,NA,NA,0.00,WeatherLink_script,2013-04-09 11:11:00,
2013-04-09 07:16:00,60.8,50.6,30.10,SSW,194,3.8,5.0,69,0.00,NA,NA,0.00,WeatherLink_script,2013-04-09 11:16:00,
2013-04-09 07:21:00,60.8,50.6,30.10,SSW,194,2.5,3.0,69,0.00,NA,NA,0.00,WeatherLink_script,2013-04-09 11:21:00,
2013-04-09 07:26:00,60.8,50.6,30.10,SSW,207,2.9,4.0,69,0.00,NA,NA,0.00,WeatherLink_script,2013-04-09 11:26:00,
2013-04-09 07:31:00,61.3,50.3,30.10,SSW,207,3.0,4.0,67,0.00,NA,NA,0.00,WeatherLink_script,2013-04-09 11:31:00,
2013-04-09 07:36:00,61.8,50.3,30.10,SSW,206,3.6,5.0,66,0.00,NA,NA,0.00,WeatherLink_script,2013-04-09 11:36:00,
2013-04-09 07:41:00,62.5,50.5,30.11,SSW,207,3.2,4.0,65,0.00,NA,NA,0.00,WeatherLink_script,2013-04-09 11:41:00,
2013-04-09 07:46:00,62.8,50.0,30.11,SSW,206,2.4,4.0,63,0.00,NA,NA,0.00,WeatherLink_script,2013-04-09 11:46:00,
2013-04-09 07:51:00,63.5,50.2,30.11,SSW,207,3.0,4.0,62,0.00,NA,NA,0.00,WeatherLink_script,2013-04-09 11:51:00,
2013-04-09 07:56:00,64.0,50.7,30.11,SW,230,3.6,5.0,62,0.00,NA,NA,0.00,WeatherLink_script,2013-04-09 11:56:00,
2013-04-09 08:01:00,64.6,50.4,30.11,SW,229,2.1,3.0,60,0.00,NA,NA,0.00,WeatherLink_script,2013-04-09 12:01:00,
2013-04-09 08:06:00,64.9,50.7,30.11,SW,229,2.9,4.0,60,0.00,NA,NA,0.00,WeatherLink_script,2013-04-09 12:06:00,
2013-04-09 08:12:00,65.3,51.0,30.11,SW,229,2.5,3.0,60,0.00,NA,NA,0.00,WeatherLink_script,2013-04-09 12:12:00,
2013-04-09 08:17:00,65.6,50.8,30.11,SW,230,2.3,3.0,59,0.00,NA,NA,0.00,WeatherLink_script,2013-04-09 12:17:00,
2013-04-09 08:22:00,65.9,51.2,30.11,WNW,288,2.3,3.0,59,0.00,NA,NA,0.00,WeatherLink_script,2013-04-09 12:22:00,
2013-04-09 08:27:00,66.4,51.6,30.11,WNW,288,2.6,4.0,59,0.00,NA,NA,0.00,WeatherLink_script,2013-04-09 12:27:00,
2013-04-09 08:32:00,66.7,51.5,30.11,WNW,288,2.1,3.0,58,0.00,NA,NA,0.00,WeatherLink_script,2013-04-09 12:32:00,
2013-04-09 08:37:00,66.5,52.2,30.11,WNW,287,2.4,3.0,60,0.00,NA,NA,0.00,WeatherLink_script,2013-04-09 12:37:00,
2013-04-09 08:43:00,65.6,51.7,30.11,WSW,254,2.2,3.0,61,0.00,NA,NA,0.00,WeatherLink_script,2013-04-09 12:43:00,
2013-04-09 08:48:00,65.1,51.8,30.11,WSW,254,2.1,3.0,62,0.00,NA,NA,0.00,WeatherLink_script,2013-04-09 12:48:00,
2013-04-09 08:53:00,64.9,52.0,30.12,WSW,254,2.6,4.0,63,0.00,NA,NA,0.00,WeatherLink_script,2013-04-09 12:53:00,
2013-04-09 08:59:00,65.2,52.3,30.11,WSW,254,1.6,3.0,63,0.00,NA,NA,0.00,WeatherLink_script,2013-04-09 12:59:00,
2013-04-09 09:04:00,65.7,51.9,30.11,WSW,254,2.1,3.0,61,0.00,NA,NA,0.00,WeatherLink_script,2013-04-09 13:04:00,
2013-04-09 09:10:00,66.7,51.9,30.11,WSW,253,2.9,5.0,59,0.00,NA,NA,0.00,WeatherLink_script,2013-04-09 13:10:00,
2013-04-09 09:15:00,67.3,52.9,30.11,WSW,247,3.4,4.0,60,0.00,NA,NA,0.00,WeatherLink_script,2013-04-09 13:15:00,
2013-04-09 09:21:00,67.7,53.3,30.11,WSW,247,2.9,5.0,60,0.00,NA,NA,0.00,WeatherLink_script,2013-04-09 13:21:00,
2013-04-09 09:26:00,67.9,53.5,30.11,WSW,238,4.1,6.0,60,0.00,NA,NA,0.00,WeatherLink_script,2013-04-09 13:26:00,
2013-04-09 09:31:00,68.2,53.3,30.11,South,173,2.2,4.0,59,0.00,NA,NA,0.00,WeatherLink_script,2013-04-09 13:31:00,
2013-04-09 09:36:00,68.5,53.6,30.11,South,174,3.7,5.0,59,0.00,NA,NA,0.00,WeatherLink_script,2013-04-09 13:36:00,
2013-04-09 09:41:00,68.7,53.3,30.11,SSE,161,4.8,7.0,58,0.00,NA,NA,0.00,WeatherLink_script,2013-04-09 13:41:00,
2013-04-09 09:46:00,68.9,53.0,30.11,SSE,162,3.6,5.0,57,0.00,NA,NA,0.00,WeatherLink_script,2013-04-09 13:46:00,
2013-04-09 09:51:00,69.7,53.3,30.11,SSE,160,4.4,6.0,56,0.00,NA,NA,0.00,WeatherLink_script,2013-04-09 13:51:00,
2013-04-09 09:56:00,70.2,53.3,30.11,SSE,159,4.2,6.0,55,0.00,NA,NA,0.00,WeatherLink_script,2013-04-09 13:56:00,
2013-04-09 10:01:00,70.7,53.7,30.11,SSE,162,1.6,3.0,55,0.00,NA,NA,0.00,WeatherLink_script,2013-04-09 14:01:00,
2013-04-09 10:06:00,71.7,54.1,30.11,SSE,161,2.7,4.0,54,0.00,NA,NA,0.00,WeatherLink_script,2013-04-09 14:06:00,
2013-04-09 10:11:00,72.3,53.7,30.11,SSE,161,2.9,5.0,52,0.00,NA,NA,0.00,WeatherLink_script,2013-04-09 14:11:00,
2013-04-09 10:16:00,72.9,53.7,30.12,SSE,158,3.6,5.0,51,0.00,NA,NA,0.00,WeatherLink_script,2013-04-09 14:16:00,
2013-04-09 10:21:00,73.6,54.3,30.12,SSE,158,2.4,4.0,51,0.00,NA,NA,0.00,WeatherLink_script,2013-04-09 14:21:00,
2013-04-09 10:27:00,74.6,54.7,30.12,SSE,164,3.1,4.0,50,0.00,NA,NA,0.00,WeatherLink_script,2013-04-09 14:27:00,
2013-04-09 10:33:00,75.3,53.7,30.11,SSW,193,3.3,5.0,47,0.00,NA,NA,0.00,WeatherLink_script,2013-04-09 14:33:00,
2013-04-09 10:38:00,75.8,55.3,30.12,SSW,205,3.7,5.0,49,0.00,NA,NA,0.00,WeatherLink_script,2013-04-09 14:38:00,
2013-04-09 10:43:00,76.6,54.2,30.12,WSW,237,3.4,5.0,46,0.00,NA,NA,0.00,WeatherLink_script,2013-04-09 14:43:00,
2013-04-09 10:48:00,76.7,53.7,30.12,SW,231,1.5,5.0,45,0.00,NA,NA,0.00,WeatherLink_script,2013-04-09 14:48:00,
2013-04-09 10:54:00,77.1,54.7,30.12,WSW,244,2.5,5.0,46,0.00,NA,NA,0.00,WeatherLink_script,2013-04-09 14:54:00,
2013-04-09 11:00:00,77.6,55.2,30.12,WSW,243,1.5,4.0,46,0.00,NA,NA,0.00,WeatherLink_script,2013-04-09 15:00:00,
2013-04-09 11:05:00,77.8,55.3,30.12,West,270,2.7,4.0,46,0.00,NA,NA,0.00,WeatherLink_script,2013-04-09 15:05:00,
2013-04-09 11:11:00,78.1,54.4,30.12,West,270,3.8,6.0,44,0.00,NA,NA,0.00,WeatherLink_script,2013-04-09 15:11:00,
2013-04-09 11:16:00,78.5,54.7,30.12,NW,314,4.6,7.0,44,0.00,NA,NA,0.00,WeatherLink_script,2013-04-09 15:16:00,
2013-04-09 11:21:00,78.3,53.3,30.12,NNW,331,4.5,8.0,42,0.00,NA,NA,0.00,WeatherLink_script,2013-04-09 15:21:00,
2013-04-09 11:26:00,78.1,54.4,30.12,NNW,334,3.1,5.0,44,0.00,NA,NA,0.00,WeatherLink_script,2013-04-09 15:26:00,
2013-04-09 11:31:00,78.7,54.3,30.12,West,263,1.8,4.0,43,0.00,NA,NA,0.00,WeatherLink_script,2013-04-09 15:31:00,
2013-04-09 11:36:00,79.1,55.3,30.11,WNW,287,2.7,4.0,44,0.00,NA,NA,0.00,WeatherLink_script,2013-04-09 15:36:00,
2013-04-09 11:41:00,79.2,54.1,30.12,NW,308,4.4,6.0,42,0.00,NA,NA,0.00,WeatherLink_script,2013-04-09 15:41:00,
2013-04-09 11:46:00,79.2,54.1,30.11,West,259,2.7,4.0,42,0.00,NA,NA,0.00,WeatherLink_script,2013-04-09 15:46:00,
2013-04-09 11:51:00,79.6,54.5,30.11,WSW,257,2.0,4.0,42,0.00,NA,NA,0.00,WeatherLink_script,2013-04-09 15:51:00,
2013-04-09 11:57:00,79.6,53.8,30.11,WNW,294,3.8,5.0,41,0.00,NA,NA,0.00,WeatherLink_script,2013-04-09 15:57:00,
2013-04-09 12:02:00,79.6,55.1,30.12,WNW,284,1.9,3.0,43,0.00,NA,NA,0.00,WeatherLink_script,2013-04-09 16:02:00,
2013-04-09 12:08:00,80.2,55.7,30.11,WSW,258,3.0,4.0,43,0.00,NA,NA,0.00,WeatherLink_script,2013-04-09 16:08:00,
2013-04-09 12:13:00,80.6,54.7,30.11,West,260,2.3,3.0,41,0.00,NA,NA,0.00,WeatherLink_script,2013-04-09 16:13:00,
2013-04-09 12:18:00,80.7,53.4,30.11,North,354,1.9,4.0,39,0.00,NA,NA,0.00,WeatherLink_script,2013-04-09 16:18:00,
2013-04-09 12:23:00,80.6,54.7,30.11,NE,44,3.0,4.0,41,0.00,NA,NA,0.00,WeatherLink_script,2013-04-09 16:23:00,
2013-04-09 12:28:00,80.2,53.7,30.11,NW,313,5.9,9.0,40,0.00,NA,NA,0.00,WeatherLink_script,2013-04-09 16:28:00,
2013-04-09 12:33:00,80.0,53.5,30.11,WNW,302,4.1,5.0,40,0.00,NA,NA,0.00,WeatherLink_script,2013-04-09 16:33:00,
2013-04-09 12:39:00,80.0,54.2,30.10,WNW,301,1.0,2.0,41,0.00,NA,NA,0.00,WeatherLink_script,2013-04-09 16:39:00,
2013-04-09 12:45:00,80.3,53.8,30.10,West,279,3.0,5.0,40,0.00,NA,NA,0.00,WeatherLink_script,2013-04-09 16:45:00,
2013-04-09 12:50:00,80.3,55.8,30.10,West,276,3.5,5.0,43,0.00,NA,NA,0.00,WeatherLink_script,2013-04-09 16:50:00,
2013-04-09 12:55:00,80.8,53.5,30.09,WNW,290,5.9,8.0,39,0.00,NA,NA,0.00,WeatherLink_script,2013-04-09 16:55:00,
2013-04-09 13:01:00,80.6,54.0,30.09,North,356,3.7,6.0,40,0.00,NA,NA,0.00,WeatherLink_script,2013-04-09 17:01:00,
2013-04-09 13:06:00,80.4,54.5,30.09,North,354,3.3,4.0,41,0.00,NA,NA,0.00,WeatherLink_script,2013-04-09 17:06:00,
2013-04-09 13:11:00,80.3,54.5,30.09,NW,324,1.8,4.0,41,0.00,NA,NA,0.00,WeatherLink_script,2013-04-09 17:11:00,
2013-04-09 13:16:00,80.4,55.2,30.08,NW,324,0.3,1.0,42,0.00,NA,NA,0.00,WeatherLink_script,2013-04-09 17:16:00,
2013-04-09 13:21:00,81.1,55.1,30.08,SW,227,2.2,4.0,41,0.00,NA,NA,0.00,WeatherLink_script,2013-04-09 17:21:00,
2013-04-09 13:26:00,81.7,54.3,30.08,SW,215,3.9,5.0,39,0.00,NA,NA,0.00,WeatherLink_script,2013-04-09 17:26:00,
2013-04-09 13:32:00,82.8,54.6,30.08,SSW,199,4.1,5.0,38,0.00,NA,NA,0.00,WeatherLink_script,2013-04-09 17:32:00,
2013-04-09 13:37:00,83.2,54.2,30.08,West,261,2.1,4.0,37,0.00,NA,NA,0.00,WeatherLink_script,2013-04-09 17:37:00,
2013-04-09 13:42:00,83.1,54.1,30.08,WNW,283,1.8,3.0,37,0.00,NA,NA,0.00,WeatherLink_script,2013-04-09 17:42:00,
2013-04-09 13:47:00,83.2,54.2,30.08,SSW,210,3.6,5.0,37,0.00,NA,NA,0.00,WeatherLink_script,2013-04-09 17:47:00,
2013-04-09 13:52:00,83.6,54.5,30.07,SW,232,2.8,4.0,37,0.00,NA,NA,0.00,WeatherLink_script,2013-04-09 17:52:00,
2013-04-09 13:58:00,83.6,54.6,30.07,SSE,165,4.8,7.0,37,0.00,NA,NA,0.00,WeatherLink_script,2013-04-09 17:58:00,
2013-04-09 14:03:00,83.2,54.9,30.07,SW,227,2.5,4.0,38,0.00,NA,NA,0.00,WeatherLink_script,2013-04-09 18:03:00,
2013-04-09 14:08:00,83.2,55.6,30.07,SE,145,5.1,8.0,39,0.00,NA,NA,0.00,WeatherLink_script,2013-04-09 18:08:00,
2013-04-09 14:13:00,83.2,54.9,30.06,SSE,150,5.0,7.0,38,0.00,NA,NA,0.00,WeatherLink_script,2013-04-09 18:13:00,
2013-04-09 14:18:00,82.8,55.2,30.06,SE,128,3.5,7.0,39,0.00,NA,NA,0.00,WeatherLink_script,2013-04-09 18:18:00,
2013-04-09 14:25:00,82.8,56.0,30.06,SE,144,4.5,6.0,40,0.00,NA,NA,0.00,WeatherLink_script,2013-04-09 18:25:00,
2013-04-09 14:30:00,83.9,57.0,30.06,SSE,148,6.3,8.0,40,0.00,NA,NA,0.00,WeatherLink_script,2013-04-09 18:30:00,
2013-04-09 14:36:00,84.4,56.7,30.06,SSE,163,7.0,9.0,39,0.00,NA,NA,0.00,WeatherLink_script,2013-04-09 18:36:00,
2013-04-09 14:41:00,84.4,56.0,30.06,South,182,3.2,5.0,38,0.00,NA,NA,0.00,WeatherLink_script,2013-04-09 18:41:00,
2013-04-09 14:46:00,84.2,55.8,30.05,South,179,2.6,4.0,38,0.00,NA,NA,0.00,WeatherLink_script,2013-04-09 18:46:00,
2013-04-09 14:52:00,83.9,54.9,30.05,SSE,149,2.3,3.0,37,0.00,NA,NA,0.00,WeatherLink_script,2013-04-09 18:52:00,
2013-04-09 14:58:00,83.8,55.4,30.04,South,177,5.3,7.0,38,0.00,NA,NA,0.00,WeatherLink_script,2013-04-09 18:58:00,
2013-04-09 15:04:00,83.9,54.0,30.04,SSE,152,3.3,5.0,36,0.00,NA,NA,0.00,WeatherLink_script,2013-04-09 19:04:00,
2013-04-09 15:09:00,83.4,56.5,30.03,SSE,168,2.0,3.0,40,0.00,NA,NA,0.00,WeatherLink_script,2013-04-09 19:09:00,
2013-04-09 15:14:00,83.8,54.7,30.03,East,81,2.2,4.0,37,0.00,NA,NA,0.00,WeatherLink_script,2013-04-09 19:14:00,
2013-04-09 15:20:00,84.2,55.8,30.02,South,170,5.0,7.0,38,0.00,NA,NA,0.00,WeatherLink_script,2013-04-09 19:20:00,
2013-04-09 15:25:00,84.8,54.9,30.02,South,190,3.8,5.0,36,0.00,NA,NA,0.00,WeatherLink_script,2013-04-09 19:25:00,
2013-04-09 15:30:00,85.0,55.0,30.02,South,176,5.6,8.0,36,0.00,NA,NA,0.00,WeatherLink_script,2013-04-09 19:30:00,
2013-04-09 15:36:00,85.2,55.2,30.01,SSE,159,6.5,9.0,36,0.00,NA,NA,0.00,WeatherLink_script,2013-04-09 19:36:00,
2013-04-09 15:41:00,85.4,54.6,30.01,SSW,200,2.8,4.0,35,0.00,NA,NA,0.00,WeatherLink_script,2013-04-09 19:41:00,
2013-04-09 15:46:00,85.2,54.4,30.01,South,184,5.5,7.0,35,0.00,NA,NA,0.00,WeatherLink_script,2013-04-09 19:46:00,
2013-04-09 15:51:00,85.4,54.6,30.01,South,184,5.0,8.0,35,0.00,NA,NA,0.00,WeatherLink_script,2013-04-09 19:51:00,
2013-04-09 15:57:00,85.7,54.9,30.01,SSW,193,5.0,8.0,35,0.00,NA,NA,0.00,WeatherLink_script,2013-04-09 19:57:00,
2013-04-09 16:02:00,86.0,55.1,30.00,South,189,4.0,6.0,35,0.00,NA,NA,0.00,WeatherLink_script,2013-04-09 20:02:00,
2013-04-09 16:07:00,86.4,55.5,30.00,WSW,242,6.2,9.0,35,0.00,NA,NA,0.00,WeatherLink_script,2013-04-09 20:07:00,
2013-04-09 16:12:00,86.4,54.7,30.00,West,275,4.6,7.0,34,0.00,NA,NA,0.00,WeatherLink_script,2013-04-09 20:12:00,
2013-04-09 16:17:00,86.4,54.7,30.00,South,189,5.1,7.0,34,0.00,NA,NA,0.00,WeatherLink_script,2013-04-09 20:17:00,
2013-04-09 16:22:00,86.2,53.7,30.00,South,191,4.6,6.0,33,0.00,NA,NA,0.00,WeatherLink_script,2013-04-09 20:22:00,
2013-04-09 16:27:00,85.7,54.1,30.00,SSE,154,7.3,12.0,34,0.00,NA,NA,0.00,WeatherLink_script,2013-04-09 20:27:00,
2013-04-09 16:32:00,85.5,54.7,30.00,SW,234,4.1,6.0,35,0.00,NA,NA,0.00,WeatherLink_script,2013-04-09 20:32:00,
2013-04-09 16:37:00,85.7,54.1,29.99,South,176,3.4,5.0,34,0.00,NA,NA,0.00,WeatherLink_script,2013-04-09 20:37:00,
2013-04-09 16:43:00,85.7,54.1,29.99,South,177,5.2,7.0,34,0.00,NA,NA,0.00,WeatherLink_script,2013-04-09 20:43:00,
2013-04-09 16:50:00,85.0,53.5,30.00,South,178,6.0,9.0,34,0.00,NA,NA,0.00,WeatherLink_script,2013-04-09 20:50:00,
2013-04-09 16:55:00,84.6,53.1,29.99,South,179,3.6,5.0,34,0.00,NA,NA,0.00,WeatherLink_script,2013-04-09 20:55:00,
2013-04-09 17:00:00,84.6,53.9,29.99,South,171,4.2,6.0,35,0.00,NA,NA,0.00,WeatherLink_script,2013-04-09 21:00:00,
2013-04-09 17:06:00,84.8,53.3,29.99,South,184,3.0,5.0,34,0.00,NA,NA,0.00,WeatherLink_script,2013-04-09 21:06:00,
2013-04-09 17:12:00,85.2,53.6,29.99,WSW,247,5.6,7.0,34,0.00,NA,NA,0.00,WeatherLink_script,2013-04-09 21:12:00,
2013-04-09 17:17:00,85.2,54.4,29.99,SSW,208,3.4,5.0,35,0.00,NA,NA,0.00,WeatherLink_script,2013-04-09 21:17:00,
2013-04-09 17:22:00,85.1,54.4,29.99,SSW,195,3.9,7.0,35,0.00,NA,NA,0.00,WeatherLink_script,2013-04-09 21:22:00,
2013-04-09 17:27:00,85.2,55.2,30.00,SW,227,5.4,8.0,36,0.00,NA,NA,0.00,WeatherLink_script,2013-04-09 21:27:00,
2013-04-09 17:33:00,85.0,54.3,29.99,SSW,200,3.7,5.0,35,0.00,NA,NA,0.00,WeatherLink_script,2013-04-09 21:33:00,
2013-04-09 17:38:00,84.8,54.0,29.99,South,184,5.4,7.0,35,0.00,NA,NA,0.00,WeatherLink_script,2013-04-09 21:38:00,
2013-04-09 17:43:00,84.1,54.3,29.99,SSW,211,3.7,5.0,36,0.00,NA,NA,0.00,WeatherLink_script,2013-04-09 21:43:00,
2013-04-09 17:49:00,84.0,53.4,29.99,SSW,206,3.3,5.0,35,0.00,NA,NA,0.00,WeatherLink_script,2013-04-09 21:49:00,
2013-04-09 17:54:00,84.0,53.4,29.99,South,191,4.5,6.0,35,0.00,NA,NA,0.00,WeatherLink_script,2013-04-09 21:54:00,
2013-04-09 17:59:00,83.6,53.8,29.99,WSW,248,4.6,9.0,36,0.00,NA,NA,0.00,WeatherLink_script,2013-04-09 21:59:00,
2013-04-09 18:05:00,83.8,54.0,30.00,WSW,241,2.9,5.0,36,0.00,NA,NA,0.00,WeatherLink_script,2013-04-09 22:05:00,
2013-04-09 18:10:00,83.8,54.0,30.00,SW,223,3.9,6.0,36,0.00,NA,NA,0.00,WeatherLink_script,2013-04-09 22:10:00,
2013-04-09 18:15:00,83.4,52.8,30.00,SW,222,2.7,5.0,35,0.00,NA,NA,0.00,WeatherLink_script,2013-04-09 22:15:00,
2013-04-09 18:21:00,83.2,52.7,30.00,SSW,201,3.7,6.0,35,0.00,NA,NA,0.00,WeatherLink_script,2013-04-09 22:21:00,
2013-04-09 18:27:00,82.6,52.9,30.00,SSW,210,2.7,4.0,36,0.00,NA,NA,0.00,WeatherLink_script,2013-04-09 22:27:00,
2013-04-09 18:32:00,82.5,53.6,30.00,WSW,242,3.7,6.0,37,0.00,NA,NA,0.00,WeatherLink_script,2013-04-09 22:32:00,
2013-04-09 18:38:00,82.3,52.6,30.00,SSW,212,4.1,6.0,36,0.00,NA,NA,0.00,WeatherLink_script,2013-04-09 22:38:00,
2013-04-09 18:45:00,81.8,53.0,29.99,SSW,199,2.7,5.0,37,0.00,NA,NA,0.00,WeatherLink_script,2013-04-09 22:45:00,
2013-04-09 18:50:00,81.7,53.6,29.99,SW,218,3.3,5.0,38,0.00,NA,NA,0.00,WeatherLink_script,2013-04-09 22:50:00,
2013-04-09 18:55:00,81.4,54.0,30.00,SSW,210,3.3,5.0,39,0.00,NA,NA,0.00,WeatherLink_script,2013-04-09 22:55:00,
2013-04-09 19:00:00,81.3,53.2,29.99,SW,234,3.2,5.0,38,0.00,NA,NA,0.00,WeatherLink_script,2013-04-09 23:00:00,
2013-04-09 19:05:00,81.3,54.0,29.99,SW,220,3.9,7.0,39,0.00,NA,NA,0.00,WeatherLink_script,2013-04-09 23:05:00,
2013-04-09 19:10:00,81.1,53.8,29.99,SW,222,3.6,5.0,39,0.00,NA,NA,0.00,WeatherLink_script,2013-04-09 23:10:00,
2013-04-09 19:15:00,80.9,53.6,29.99,SW,223,3.7,5.0,39,0.00,NA,NA,0.00,WeatherLink_script,2013-04-09 23:15:00,
2013-04-09 19:20:00,80.4,53.2,29.99,South,189,3.5,5.0,39,0.00,NA,NA,0.00,WeatherLink_script,2013-04-09 23:20:00,
2013-04-09 19:25:00,80.2,53.7,29.99,SSW,207,3.8,5.0,40,0.00,NA,NA,0.00,WeatherLink_script,2013-04-09 23:25:00,
2013-04-09 19:30:00,79.6,53.1,29.99,South,187,3.5,5.0,40,0.00,NA,NA,0.00,WeatherLink_script,2013-04-09 23:30:00,
2013-04-09 19:35:00,79.2,53.5,30.00,South,187,3.7,5.0,41,0.00,NA,NA,0.00,WeatherLink_script,2013-04-09 23:35:00,
2013-04-09 19:40:00,78.9,53.2,30.00,South,189,3.5,6.0,41,0.00,NA,NA,0.00,WeatherLink_script,2013-04-09 23:40:00,
2013-04-09 19:45:00,78.6,53.6,30.00,SSW,196,4.4,6.0,42,0.00,NA,NA,0.00,WeatherLink_script,2013-04-09 23:45:00,
2013-04-09 19:50:00,78.2,53.2,30.00,SSW,192,3.7,5.0,42,0.00,NA,NA,0.00,WeatherLink_script,2013-04-09 23:50:00,
2013-04-09 19:55:00,77.8,53.5,29.99,SSW,193,4.3,5.0,43,0.00,NA,NA,0.00,WeatherLink_script,2013-04-09 23:55:00,
2013-04-09 20:00:00,77.6,53.3,29.99,South,187,4.8,6.0,43,0.00,NA,NA,0.00,WeatherLink_script,2013-04-10 00:00:00,
2013-04-09 20:06:00,77.2,53.5,30.00,South,185,4.4,5.0,44,0.00,NA,NA,0.00,WeatherLink_script,2013-04-10 00:06:00,
2013-04-09 20:11:00,76.7,53.1,29.99,South,181,4.0,5.0,44,0.00,NA,NA,0.00,WeatherLink_script,2013-04-10 00:11:00,
2013-04-09 20:16:00,76.5,53.6,30.00,South,181,5.0,6.0,45,0.00,NA,NA,0.00,WeatherLink_script,2013-04-10 00:16:00,
2013-04-09 20:21:00,76.1,53.2,29.99,South,183,4.3,5.0,45,0.00,NA,NA,0.00,WeatherLink_script,2013-04-10 00:21:00,
2013-04-09 20:26:00,75.8,53.5,30.00,South,186,4.4,5.0,46,0.00,NA,NA,0.00,WeatherLink_script,2013-04-10 00:26:00,
2013-04-09 20:31:00,75.5,53.2,30.00,South,186,5.8,7.0,46,0.00,NA,NA,0.00,WeatherLink_script,2013-04-10 00:31:00,
2013-04-09 20:36:00,75.3,53.1,30.00,South,187,5.4,7.0,46,0.00,NA,NA,0.00,WeatherLink_script,2013-04-10 00:36:00,
2013-04-09 20:41:00,75.1,53.5,30.00,South,178,5.2,6.0,47,0.00,NA,NA,0.00,WeatherLink_script,2013-04-10 00:41:00,
2013-04-09 20:46:00,74.8,53.2,30.00,South,182,4.6,6.0,47,0.00,NA,NA,0.00,WeatherLink_script,2013-04-10 00:46:00,
2013-04-09 20:51:00,74.6,53.0,30.00,South,187,4.3,5.0,47,0.00,NA,NA,0.00,WeatherLink_script,2013-04-10 00:51:00,
2013-04-09 20:56:00,74.4,52.8,30.01,South,186,4.5,7.0,47,0.00,NA,NA,0.00,WeatherLink_script,2013-04-10 00:56:00,
2013-04-09 21:01:00,74.3,53.3,30.00,South,176,5.0,6.0,48,0.00,NA,NA,0.00,WeatherLink_script,2013-04-10 01:01:00,
2013-04-09 21:06:00,74.1,53.1,30.01,South,190,4.6,6.0,48,0.00,NA,NA,0.00,WeatherLink_script,2013-04-10 01:06:00,
2013-04-09 21:11:00,74.1,53.1,30.01,SSW,198,4.4,6.0,48,0.00,NA,NA,0.00,WeatherLink_script,2013-04-10 01:11:00,
2013-04-09 21:16:00,73.9,53.5,30.02,SSW,197,3.4,5.0,49,0.00,NA,NA,0.00,WeatherLink_script,2013-04-10 01:16:00,
2013-04-09 21:21:00,74.0,53.1,30.01,SSW,198,3.9,5.0,48,0.00,NA,NA,0.00,WeatherLink_script,2013-04-10 01:21:00,
2013-04-09 21:26:00,74.1,53.1,30.02,SSW,204,3.9,5.0,48,0.00,NA,NA,0.00,WeatherLink_script,2013-04-10 01:26:00,
2013-04-09 21:31:00,74.1,53.1,30.02,SSW,211,3.8,5.0,48,0.00,NA,NA,0.00,WeatherLink_script,2013-04-10 01:31:00,
2013-04-09 21:36:00,74.1,53.1,30.02,SSW,195,4.4,6.0,48,0.00,NA,NA,0.00,WeatherLink_script,2013-04-10 01:36:00,
2013-04-09 21:41:00,74.1,53.1,30.02,SSW,197,4.0,5.0,48,0.00,NA,NA,0.00,WeatherLink_script,2013-04-10 01:41:00,
2013-04-09 21:46:00,74.1,53.1,30.02,SSW,205,4.6,6.0,48,0.00,NA,NA,0.00,WeatherLink_script,2013-04-10 01:46:00,
2013-04-09 21:51:00,74.1,53.1,30.02,SW,220,4.8,7.0,48,0.00,NA,NA,0.00,WeatherLink_script,2013-04-10 01:51:00,
2013-04-09 21:56:00,74.1,53.1,30.02,SW,220,4.5,7.0,48,0.00,NA,NA,0.00,WeatherLink_script,2013-04-10 01:56:00,
2013-04-09 22:01:00,73.9,53.0,30.02,SW,228,4.7,7.0,48,0.00,NA,NA,0.00,WeatherLink_script,2013-04-10 02:01:00,
2013-04-09 22:06:00,73.9,53.0,30.01,SW,221,4.6,5.0,48,0.00,NA,NA,0.00,WeatherLink_script,2013-04-10 02:06:00,
2013-04-09 22:11:00,73.8,53.4,30.02,SSW,208,4.3,6.0,49,0.00,NA,NA,0.00,WeatherLink_script,2013-04-10 02:11:00,
2013-04-09 22:16:00,73.6,53.2,30.02,SW,219,4.9,7.0,49,0.00,NA,NA,0.00,WeatherLink_script,2013-04-10 02:16:00,
2013-04-09 22:21:00,73.6,53.2,30.01,SW,217,5.0,6.0,49,0.00,NA,NA,0.00,WeatherLink_script,2013-04-10 02:21:00,
2013-04-09 22:26:00,73.6,53.2,30.01,SW,224,4.7,6.0,49,0.00,NA,NA,0.00,WeatherLink_script,2013-04-10 02:26:00,
2013-04-09 22:32:00,73.6,53.2,30.01,SSW,212,5.2,7.0,49,0.00,NA,NA,0.00,WeatherLink_script,2013-04-10 02:32:00,
2013-04-09 22:37:00,73.4,53.1,30.01,SW,217,4.7,6.0,49,0.00,NA,NA,0.00,WeatherLink_script,2013-04-10 02:37:00,
2013-04-09 22:43:00,73.2,52.9,30.01,SW,219,4.6,6.0,49,0.00,NA,NA,0.00,WeatherLink_script,2013-04-10 02:43:00,
2013-04-09 22:49:00,73.1,53.3,30.01,WSW,241,4.3,6.0,50,0.00,NA,NA,0.00,WeatherLink_script,2013-04-10 02:49:00,
2013-04-09 22:55:00,72.9,53.2,30.01,SW,219,5.6,7.0,50,0.00,NA,NA,0.00,WeatherLink_script,2013-04-10 02:55:00,
2013-04-09 23:01:00,72.7,53.0,30.01,SW,223,5.0,7.0,50,0.00,NA,NA,0.00,WeatherLink_script,2013-04-10 03:01:00,
2013-04-09 23:06:00,72.7,53.0,30.00,WSW,251,4.5,5.0,50,0.00,NA,NA,0.00,WeatherLink_script,2013-04-10 03:06:00,
2013-04-09 23:11:00,72.6,52.9,30.00,SW,222,4.8,7.0,50,0.00,NA,NA,0.00,WeatherLink_script,2013-04-10 03:11:00,
2013-04-09 23:16:00,72.4,53.2,30.00,SW,220,5.0,7.0,51,0.00,NA,NA,0.00,WeatherLink_script,2013-04-10 03:16:00,
2013-04-09 23:21:00,72.2,53.0,30.00,SW,233,4.5,7.0,51,0.00,NA,NA,0.00,WeatherLink_script,2013-04-10 03:21:00,
2013-04-09 23:26:00,72.2,53.0,30.00,SW,228,5.6,8.0,51,0.00,NA,NA,0.00,WeatherLink_script,2013-04-10 03:26:00,
2013-04-09 23:31:00,72.1,53.0,30.00,SW,222,4.7,6.0,51,0.00,NA,NA,0.00,WeatherLink_script,2013-04-10 03:31:00,
2013-04-09 23:36:00,71.9,52.8,30.00,SW,224,3.8,6.0,51,0.00,NA,NA,0.00,WeatherLink_script,2013-04-10 03:36:00,
2013-04-09 23:41:00,71.9,52.8,29.99,SW,219,4.9,7.0,51,0.00,NA,NA,0.00,WeatherLink_script,2013-04-10 03:41:00,
2013-04-09 23:46:00,71.7,52.6,29.99,SW,216,4.8,6.0,51,0.00,NA,NA,0.00,WeatherLink_script,2013-04-10 03:46:00,
2013-04-09 23:51:00,71.5,52.4,29.99,SW,222,5.1,7.0,51,0.00,NA,NA,0.00,WeatherLink_script,2013-04-10 03:51:00,
2013-04-09 23:56:00,71.4,52.8,29.99,SW,233,4.4,6.0,52,0.00,NA,NA,0.00,WeatherLink_script,2013-04-10 03:56:00,